Impacts TAF Board INFO
FOR SITUATIONAL AWARENESS. NOT TO BE USED FOR FLIGHT PLANNING PURPOSES.
IDs:

KSLC - Salt Lake City Intl, UT, US

Issued at 0525 UTC 28 Mar 2017
Updated at 0813 UTC 28 Mar 2017
Potential Impact None Slight Moderate High
Time0754Z 28/09Z 28/10Z 28/11Z 28/12Z 28/13Z 28/14Z 28/15Z 28/16Z 28/17Z 28/18Z 28/19Z 28/20Z 28/21Z
Type OBS PRVL PRVL PRVL PRVL PRVL PRVL PRVL PRVL PRVL PRVL PRVL PRVL PRVL
VIS 10 >6 >6 >6 >6 >6 >6 >6 >6 >6 >6 >6 >6 >6
CIG 90 100 100 100 100 100 100 100 -- -- -- -- -- --
Cover BKN BKN BKN BKN BKN BKN BKN BKN SCT SCT SCT SCT SCT SCT
FltCat VFR VFR VFR VFR VFR VFR VFR VFR VFR VFR VFR VFR VFR VFR
WX -- -- -- -- -- -- -- -- -- -- -- -- -- --
WDir 350 330 330 330 330 330 330 330 330 330 330 330 330 330
WSpd 12 10 10 10 10 10 10 10 11 11 11 11 11 11
WGst -- -- -- -- -- -- -- -- -- -- -- -- -- --

Raw TAF
KSLC 280525Z 2806/2912 33010KT P6SM FEW050 BKN100
  FM281600 33011KT P6SM SCT050
  FM290200 34005KT P6SM SKC


Raw METAR
KSLC 280754Z 35012KT 10SM FEW055 BKN090 05/01 A3001 RMK AO2 SLP157 T00500011
KSLC 280654Z 35008KT 10SM FEW055 BKN090 05/02 A3000 RMK AO2 SLP154 T00500017 401000050
KSLC 280554Z 36012KT 10SM FEW050 BKN085 05/02 A2999 RMK AO2 SLP149 60001 T00500017 10072 20050 51010

METAR Board
Radar Display
Forecast Discussion

FOR SITUATIONAL AWARENESS. NOT TO BE USED FOR FLIGHT PLANNING PURPOSES.

Page loaded:  08:13 UTC  |   01:13 AM Pacific  |   02:13 AM Mountain  |   03:13 AM Central  |   04:13 AM Eastern

 

ADVISORIES

FORECASTS

FORECASTS

OBSERVATIONS

USER TOOLS

ABOUT US